sensor_id;sensor_type;location;lat;lon;timestamp;pressure;altitude;pressure_sealevel;temperature;humidity
66021;BME280;52789;59.980;30.346;2022-11-23T00:01:47;101411.06;;;-2.30;98.62
66021;BME280;52789;59.980;30.346;2022-11-23T00:04:12;101402.38;;;-2.30;98.83
66021;BME280;52789;59.980;30.346;2022-11-23T00:06:39;101415.22;;;-2.26;98.54
66021;BME280;52789;59.980;30.346;2022-11-23T00:09:05;101420.44;;;-2.26;99.08
66021;BME280;52789;59.980;30.346;2022-11-23T00:11:33;101386.25;;;-2.40;99.17
66021;BME280;52789;59.980;30.346;2022-11-23T00:13:59;101416.16;;;-2.27;98.77
66021;BME280;52789;59.980;30.346;2022-11-23T00:16:26;101418.47;;;-2.21;98.82
66021;BME280;52789;59.980;30.346;2022-11-23T00:18:54;101415.75;;;-2.17;99.07
66021;BME280;52789;59.980;30.346;2022-11-23T00:21:21;101422.53;;;-2.13;98.90
66021;BME280;52789;59.980;30.346;2022-11-23T00:23:47;101417.22;;;-2.12;99.12
66021;BME280;52789;59.980;30.346;2022-11-23T00:26:13;101412.09;;;-2.13;99.02
66021;BME280;52789;59.980;30.346;2022-11-23T00:28:39;101425.00;;;-2.10;98.84
66021;BME280;52789;59.980;30.346;2022-11-23T00:31:06;101416.53;;;-2.15;98.88
66021;BME280;52789;59.980;30.346;2022-11-23T00:33:32;101415.69;;;-2.16;98.47
66021;BME280;52789;59.980;30.346;2022-11-23T00:38:30;101425.78;;;-2.29;99.07
66021;BME280;52789;59.980;30.346;2022-11-23T00:41:01;101426.81;;;-2.33;99.25
66021;BME280;52789;59.980;30.346;2022-11-23T00:43:28;101426.94;;;-2.36;99.36
66021;BME280;52789;59.980;30.346;2022-11-23T00:48:35;101431.06;;;-2.30;99.22
66021;BME280;52789;59.980;30.346;2022-11-23T00:51:02;101418.88;;;-2.30;99.36
66021;BME280;52789;59.980;30.346;2022-11-23T00:53:28;101418.75;;;-2.27;99.64
66021;BME280;52789;59.980;30.346;2022-11-23T00:55:55;101432.66;;;-2.26;98.91
66021;BME280;52789;59.980;30.346;2022-11-23T00:58:22;101437.44;;;-2.37;98.81
66021;BME280;52789;59.980;30.346;2022-11-23T01:00:47;101432.28;;;-2.39;99.42
66021;BME280;52789;59.980;30.346;2022-11-23T01:03:14;101436.84;;;-2.44;99.72
66021;BME280;52789;59.980;30.346;2022-11-23T01:05:40;101442.00;;;-2.42;99.73
66021;BME280;52789;59.980;30.346;2022-11-23T01:08:06;101441.22;;;-2.44;99.95
66021;BME280;52789;59.980;30.346;2022-11-23T01:10:32;101436.97;;;-2.47;100.00
66021;BME280;52789;59.980;30.346;2022-11-23T01:12:58;101436.97;;;-2.47;100.00
66021;BME280;52789;59.980;30.346;2022-11-23T01:15:24;101437.13;;;-2.50;100.00
66021;BME280;52789;59.980;30.346;2022-11-23T01:17:50;101436.19;;;-2.49;100.00
66021;BME280;52789;59.980;30.346;2022-11-23T01:20:15;101435.41;;;-2.51;100.00
66021;BME280;52789;59.980;30.346;2022-11-23T01:22:41;101440.38;;;-2.45;100.00
66021;BME280;52789;59.980;30.346;2022-11-23T01:25:07;101442.06;;;-2.44;100.00
66021;BME280;52789;59.980;30.346;2022-11-23T01:27:32;101433.47;;;-2.46;100.00
66021;BME280;52789;59.980;30.346;2022-11-23T01:29:58;101423.28;;;-2.52;100.00
66021;BME280;52789;59.980;30.346;2022-11-23T01:32:23;101428.50;;;-2.52;99.75
66021;BME280;52789;59.980;30.346;2022-11-23T01:34:49;101426.03;;;-2.55;99.30
66021;BME280;52789;59.980;30.346;2022-11-23T01:37:14;101427.66;;;-2.53;99.00
66021;BME280;52789;59.980;30.346;2022-11-23T01:39:40;101419.13;;;-2.56;98.98
66021;BME280;52789;59.980;30.346;2022-11-23T01:42:05;101422.00;;;-2.64;100.00
66021;BME280;52789;59.980;30.346;2022-11-23T01:44:36;101425.31;;;-2.59;100.00
66021;BME280;52789;59.980;30.346;2022-11-23T01:47:07;101422.63;;;-2.57;99.87
66021;BME280;52789;59.980;30.346;2022-11-23T01:49:41;101420.16;;;-2.60;99.71
66021;BME280;52789;59.980;30.346;2022-11-23T01:52:14;101426.25;;;-2.61;99.53
66021;BME280;52789;59.980;30.346;2022-11-23T01:54:47;101434.13;;;-2.63;99.40
66021;BME280;52789;59.980;30.346;2022-11-23T01:57:20;101426.31;;;-2.63;99.39
66021;BME280;52789;59.980;30.346;2022-11-23T01:59:47;101426.09;;;-2.57;99.50
66021;BME280;52789;59.980;30.346;2022-11-23T02:02:14;101434.50;;;-2.50;99.70
66021;BME280;52789;59.980;30.346;2022-11-23T02:04:42;101433.34;;;-2.43;99.29
66021;BME280;52789;59.980;30.346;2022-11-23T02:07:10;101427.97;;;-2.40;98.72
66021;BME280;52789;59.980;30.346;2022-11-23T02:09:36;101428.25;;;-2.46;98.68
66021;BME280;52789;59.980;30.346;2022-11-23T02:12:02;101426.56;;;-2.47;99.36
66021;BME280;52789;59.980;30.346;2022-11-23T02:14:28;101433.34;;;-2.43;99.67
66021;BME280;52789;59.980;30.346;2022-11-23T02:16:57;101431.31;;;-2.36;99.06
66021;BME280;52789;59.980;30.346;2022-11-23T02:21:50;101422.69;;;-2.38;97.73
66021;BME280;52789;59.980;30.346;2022-11-23T02:24:22;101409.19;;;-2.48;97.80
66021;BME280;52789;59.980;30.346;2022-11-23T02:26:51;101422.06;;;-2.43;97.67
66021;BME280;52789;59.980;30.346;2022-11-23T02:29:22;101432.56;;;-2.45;98.06
66021;BME280;52789;59.980;30.346;2022-11-23T02:31:49;101441.34;;;-2.47;97.49
66021;BME280;52789;59.980;30.346;2022-11-23T02:34:16;101442.31;;;-2.50;97.74
66021;BME280;52789;59.980;30.346;2022-11-23T02:36:50;101451.78;;;-2.47;97.74
66021;BME280;52789;59.980;30.346;2022-11-23T02:39:33;101445.72;;;-2.48;97.31
66021;BME280;52789;59.980;30.346;2022-11-23T02:42:01;101448.41;;;-2.50;97.57
66021;BME280;52789;59.980;30.346;2022-11-23T02:47:08;101447.41;;;-2.47;97.78
66021;BME280;52789;59.980;30.346;2022-11-23T02:49:34;101443.75;;;-2.43;98.14
66021;BME280;52789;59.980;30.346;2022-11-23T02:52:02;101443.38;;;-2.34;97.39
66021;BME280;52789;59.980;30.346;2022-11-23T02:54:28;101445.19;;;-2.36;97.46
66021;BME280;52789;59.980;30.346;2022-11-23T02:56:54;101448.38;;;-2.28;97.05
66021;BME280;52789;59.980;30.346;2022-11-23T02:59:20;101445.06;;;-2.33;97.63
66021;BME280;52789;59.980;30.346;2022-11-23T03:01:46;101456.25;;;-2.29;96.79
66021;BME280;52789;59.980;30.346;2022-11-23T03:04:12;101427.34;;;-2.45;96.92
66021;BME280;52789;59.980;30.346;2022-11-23T03:06:37;101453.81;;;-2.34;97.28
66021;BME280;52789;59.980;30.346;2022-11-23T03:09:03;101447.94;;;-2.39;97.40
66021;BME280;52789;59.980;30.346;2022-11-23T03:11:30;101449.56;;;-2.36;97.16
66021;BME280;52789;59.980;30.346;2022-11-23T03:13:55;101441.94;;;-2.41;97.30
66021;BME280;52789;59.980;30.346;2022-11-23T03:16:21;101447.28;;;-2.44;97.83
66021;BME280;52789;59.980;30.346;2022-11-23T03:18:46;101451.47;;;-2.40;97.37
66021;BME280;52789;59.980;30.346;2022-11-23T03:21:12;101454.19;;;-2.43;97.16
66021;BME280;52789;59.980;30.346;2022-11-23T03:23:37;101455.25;;;-2.47;97.77
66021;BME280;52789;59.980;30.346;2022-11-23T03:26:03;101461.50;;;-2.51;98.18
66021;BME280;52789;59.980;30.346;2022-11-23T03:28:29;101453.59;;;-2.50;98.66
66021;BME280;52789;59.980;30.346;2022-11-23T03:30:54;101453.53;;;-2.48;98.34
66021;BME280;52789;59.980;30.346;2022-11-23T03:33:20;101461.25;;;-2.45;98.44
66021;BME280;52789;59.980;30.346;2022-11-23T03:35:48;101459.53;;;-2.46;98.32
66021;BME280;52789;59.980;30.346;2022-11-23T03:38:14;101464.75;;;-2.46;98.67
66021;BME280;52789;59.980;30.346;2022-11-23T03:40:40;101469.91;;;-2.44;98.79
66021;BME280;52789;59.980;30.346;2022-11-23T03:43:08;101467.19;;;-2.41;97.87
66021;BME280;52789;59.980;30.346;2022-11-23T03:45:33;101463.00;;;-2.45;98.30
66021;BME280;52789;59.980;30.346;2022-11-23T03:47:58;101455.44;;;-2.52;98.17
66021;BME280;52789;59.980;30.346;2022-11-23T03:50:24;101459.88;;;-2.54;98.14
66021;BME280;52789;59.980;30.346;2022-11-23T03:52:51;101458.16;;;-2.55;97.49
66021;BME280;52789;59.980;30.346;2022-11-23T03:55:17;101460.84;;;-2.56;97.87
66021;BME280;52789;59.980;30.346;2022-11-23T03:57:42;101454.16;;;-2.63;97.36
66021;BME280;52789;59.980;30.346;2022-11-23T04:00:08;101430.03;;;-2.68;97.32
66021;BME280;52789;59.980;30.346;2022-11-23T04:02:34;101457.50;;;-2.60;96.97
66021;BME280;52789;59.980;30.346;2022-11-23T04:05:00;101453.38;;;-2.65;97.90
66021;BME280;52789;59.980;30.346;2022-11-23T04:07:26;101458.66;;;-2.67;97.13
66021;BME280;52789;59.980;30.346;2022-11-23T04:09:51;101429.19;;;-2.91;96.88
66021;BME280;52789;59.980;30.346;2022-11-23T04:12:17;101460.91;;;-2.79;96.23
66021;BME280;52789;59.980;30.346;2022-11-23T04:14:43;101448.84;;;-2.82;96.79
66021;BME280;52789;59.980;30.346;2022-11-23T04:17:08;101460.72;;;-2.75;96.85
66021;BME280;52789;59.980;30.346;2022-11-23T04:19:34;101447.63;;;-2.73;97.54
66021;BME280;52789;59.980;30.346;2022-11-23T04:21:59;101449.97;;;-2.67;96.92
66021;BME280;52789;59.980;30.346;2022-11-23T04:24:25;101458.44;;;-2.62;97.40
66021;BME280;52789;59.980;30.346;2022-11-23T04:26:50;101449.97;;;-2.67;96.21
66021;BME280;52789;59.980;30.346;2022-11-23T04:29:16;101453.94;;;-2.57;96.53
66021;BME280;52789;59.980;30.346;2022-11-23T04:31:41;101425.00;;;-2.73;96.93
66021;BME280;52789;59.980;30.346;2022-11-23T04:34:07;101454.72;;;-2.55;96.33
66021;BME280;52789;59.980;30.346;2022-11-23T04:36:38;101454.94;;;-2.61;96.08
66021;BME280;52789;59.980;30.346;2022-11-23T04:39:04;101456.75;;;-2.63;96.74
66021;BME280;52789;59.980;30.346;2022-11-23T04:41:30;101457.25;;;-2.75;96.97
66021;BME280;52789;59.980;30.346;2022-11-23T04:43:56;101458.91;;;-2.73;97.57
66021;BME280;52789;59.980;30.346;2022-11-23T04:46:22;101460.66;;;-2.73;97.95
66021;BME280;52789;59.980;30.346;2022-11-23T04:48:47;101453.03;;;-2.78;97.96
66021;BME280;52789;59.980;30.346;2022-11-23T04:51:13;101458.53;;;-2.86;98.16
66021;BME280;52789;59.980;30.346;2022-11-23T04:53:39;101442.16;;;-2.89;98.44
66021;BME280;52789;59.980;30.346;2022-11-23T04:56:05;101450.03;;;-2.91;98.13
66021;BME280;52789;59.980;30.346;2022-11-23T04:58:31;101445.63;;;-2.89;98.11
66021;BME280;52789;59.980;30.346;2022-11-23T05:00:57;101407.56;;;-3.15;98.98
66021;BME280;52789;59.980;30.346;2022-11-23T05:03:23;101451.44;;;-2.82;99.46
66021;BME280;52789;59.980;30.346;2022-11-23T05:05:48;101454.25;;;-2.87;99.21
66021;BME280;52789;59.980;30.346;2022-11-23T05:08:14;101452.56;;;-2.89;98.82
66021;BME280;52789;59.980;30.346;2022-11-23T05:10:39;101432.16;;;-3.00;99.38
66021;BME280;52789;59.980;30.346;2022-11-23T05:13:08;101455.31;;;-2.92;99.46
66021;BME280;52789;59.980;30.346;2022-11-23T05:15:33;101453.72;;;-2.96;99.72
66021;BME280;52789;59.980;30.346;2022-11-23T05:18:05;101455.66;;;-3.01;99.16
66021;BME280;52789;59.980;30.346;2022-11-23T05:20:35;101451.19;;;-2.98;99.88
66021;BME280;52789;59.980;30.346;2022-11-23T05:23:01;101461.38;;;-2.92;99.38
66021;BME280;52789;59.980;30.346;2022-11-23T05:25:26;101450.16;;;-2.94;99.28
66021;BME280;52789;59.980;30.346;2022-11-23T05:27:52;101453.13;;;-3.03;99.61
66021;BME280;52789;59.980;30.346;2022-11-23T05:30:18;101449.97;;;-3.11;99.81
66021;BME280;52789;59.980;30.346;2022-11-23T05:32:44;101429.09;;;-3.33;100.00
66021;BME280;52789;59.980;30.346;2022-11-23T05:35:10;101456.03;;;-3.10;100.00
66021;BME280;52789;59.980;30.346;2022-11-23T05:37:37;101452.75;;;-3.16;100.00
66021;BME280;52789;59.980;30.346;2022-11-23T05:40:03;101452.75;;;-3.16;100.00
66021;BME280;52789;59.980;30.346;2022-11-23T05:42:30;101449.91;;;-3.09;100.00
66021;BME280;52789;59.980;30.346;2022-11-23T05:44:59;101448.88;;;-3.05;99.71
66021;BME280;52789;59.980;30.346;2022-11-23T05:47:24;101442.88;;;-3.07;100.00
66021;BME280;52789;59.980;30.346;2022-11-23T05:49:50;101450.69;;;-3.07;100.00
66021;BME280;52789;59.980;30.346;2022-11-23T05:52:16;101455.78;;;-3.04;100.00
66021;BME280;52789;59.980;30.346;2022-11-23T05:54:42;101446.28;;;-3.05;100.00
66021;BME280;52789;59.980;30.346;2022-11-23T05:57:07;101455.66;;;-3.01;100.00
66021;BME280;52789;59.980;30.346;2022-11-23T05:59:33;101455.50;;;-2.97;99.88
66021;BME280;52789;59.980;30.346;2022-11-23T06:01:59;101445.25;;;-3.01;99.91
66021;BME280;52789;59.980;30.346;2022-11-23T06:04:24;101446.09;;;-3.01;100.00
66021;BME280;52789;59.980;30.346;2022-11-23T06:06:50;101455.50;;;-2.97;99.54
66021;BME280;52789;59.980;30.346;2022-11-23T06:09:19;101445.00;;;-2.95;99.50
66021;BME280;52789;59.980;30.346;2022-11-23T06:11:45;101452.63;;;-2.91;98.93
66021;BME280;52789;59.980;30.346;2022-11-23T06:14:12;101446.09;;;-3.01;99.48
66021;BME280;52789;59.980;30.346;2022-11-23T06:16:38;101458.69;;;-2.90;100.00
66021;BME280;52789;59.980;30.346;2022-11-23T06:19:03;101456.53;;;-2.79;99.45
66021;BME280;52789;59.980;30.346;2022-11-23T06:21:32;101458.09;;;-2.75;99.11
66021;BME280;52789;59.980;30.346;2022-11-23T06:23:58;101464.91;;;-2.71;99.75
66021;BME280;52789;59.980;30.346;2022-11-23T06:26:27;101462.28;;;-2.71;99.02
66021;BME280;52789;59.980;30.346;2022-11-23T06:28:52;101458.28;;;-2.79;98.84
66021;BME280;52789;59.980;30.346;2022-11-23T06:31:18;101458.16;;;-2.76;99.11
66021;BME280;52789;59.980;30.346;2022-11-23T06:33:43;101457.97;;;-2.72;99.02
66021;BME280;52789;59.980;30.346;2022-11-23T06:36:09;101433.13;;;-2.81;99.22
66021;BME280;52789;59.980;30.346;2022-11-23T06:39:00;101443.06;;;-2.68;98.91
66021;BME280;52789;59.980;30.346;2022-11-23T06:41:26;101450.94;;;-2.70;99.34
66021;BME280;52789;59.980;30.346;2022-11-23T06:43:51;101448.53;;;-2.74;98.46
66021;BME280;52789;59.980;30.346;2022-11-23T06:46:20;101451.91;;;-2.72;99.36
66021;BME280;52789;59.980;30.346;2022-11-23T06:48:46;101451.00;;;-2.71;99.01
66021;BME280;52789;59.980;30.346;2022-11-23T06:51:13;101453.63;;;-2.71;98.70
66021;BME280;52789;59.980;30.346;2022-11-23T06:53:47;101454.72;;;-2.77;98.45
66021;BME280;52789;59.980;30.346;2022-11-23T06:56:13;101466.13;;;-2.79;99.03
66021;BME280;52789;59.980;30.346;2022-11-23T06:58:38;101461.88;;;-2.82;98.93
66021;BME280;52789;59.980;30.346;2022-11-23T07:01:06;101470.59;;;-2.83;98.56
66021;BME280;52789;59.980;30.346;2022-11-23T07:03:33;101471.34;;;-2.79;98.76
66021;BME280;52789;59.980;30.346;2022-11-23T07:06:08;101478.78;;;-2.70;98.13
66021;BME280;52789;59.980;30.346;2022-11-23T07:08:34;101486.59;;;-2.70;98.00
66021;BME280;52789;59.980;30.346;2022-11-23T07:11:02;101490.84;;;-2.68;98.23
66021;BME280;52789;59.980;30.346;2022-11-23T07:13:28;101479.56;;;-2.68;98.02
66021;BME280;52789;59.980;30.346;2022-11-23T07:15:53;101478.78;;;-2.70;97.83
66021;BME280;52789;59.980;30.346;2022-11-23T07:18:19;101479.44;;;-2.65;98.49
66021;BME280;52789;59.980;30.346;2022-11-23T07:20:44;101475.91;;;-2.64;98.23
66021;BME280;52789;59.980;30.346;2022-11-23T07:23:13;101477.41;;;-2.57;97.79
66021;BME280;52789;59.980;30.346;2022-11-23T07:25:38;101485.09;;;-2.54;97.67
66021;BME280;52789;59.980;30.346;2022-11-23T07:28:06;101487.63;;;-2.53;97.92
66021;BME280;52789;59.980;30.346;2022-11-23T07:30:32;101469.00;;;-2.65;97.30
66021;BME280;52789;59.980;30.346;2022-11-23T07:33:03;101479.88;;;-2.54;97.83
66021;BME280;52789;59.980;30.346;2022-11-23T07:35:29;101478.91;;;-2.52;98.10
66021;BME280;52789;59.980;30.346;2022-11-23T07:37:55;101483.81;;;-2.44;98.11
66021;BME280;52789;59.980;30.346;2022-11-23T07:40:22;101486.88;;;-2.34;97.76
66021;BME280;52789;59.980;30.346;2022-11-23T07:42:47;101488.91;;;-2.41;97.04
66021;BME280;52789;59.980;30.346;2022-11-23T07:45:13;101483.81;;;-2.44;97.31
66021;BME280;52789;59.980;30.346;2022-11-23T07:47:39;101487.19;;;-2.42;97.61
66021;BME280;52789;59.980;30.346;2022-11-23T07:50:10;101484.41;;;-2.37;97.62
66021;BME280;52789;59.980;30.346;2022-11-23T07:52:42;101492.78;;;-2.29;97.78
66021;BME280;52789;59.980;30.346;2022-11-23T07:55:08;101495.19;;;-2.25;98.05
66021;BME280;52789;59.980;30.346;2022-11-23T07:57:33;101491.63;;;-2.22;98.32
66021;BME280;52789;59.980;30.346;2022-11-23T08:00:02;101495.84;;;-2.20;98.24
66021;BME280;52789;59.980;30.346;2022-11-23T08:02:28;101452.75;;;-2.50;98.20
66021;BME280;52789;59.980;30.346;2022-11-23T08:04:53;101501.06;;;-2.20;98.34
66021;BME280;52789;59.980;30.346;2022-11-23T08:07:22;101506.41;;;-2.23;98.09
66021;BME280;52789;59.980;30.346;2022-11-23T08:09:48;101500.41;;;-2.25;98.49
66021;BME280;52789;59.980;30.346;2022-11-23T08:12:13;101492.66;;;-2.26;98.78
66021;BME280;52789;59.980;30.346;2022-11-23T08:14:39;101495.13;;;-2.23;98.93
66021;BME280;52789;59.980;30.346;2022-11-23T08:17:04;101491.41;;;-2.17;98.82
66021;BME280;52789;59.980;30.346;2022-11-23T08:19:30;101499.97;;;-2.14;98.61
66021;BME280;52789;59.980;30.346;2022-11-23T08:21:55;101499.75;;;-2.09;98.30
66021;BME280;52789;59.980;30.346;2022-11-23T08:24:21;101491.03;;;-2.08;98.45
66021;BME280;52789;59.980;30.346;2022-11-23T08:26:46;101490.66;;;-1.99;97.69
66021;BME280;52789;59.980;30.346;2022-11-23T08:29:12;101490.66;;;-1.99;97.56
66021;BME280;52789;59.980;30.346;2022-11-23T08:31:37;101495.53;;;-1.92;97.26
66021;BME280;52789;59.980;30.346;2022-11-23T08:34:03;101496.91;;;-1.83;97.15
66021;BME280;52789;59.980;30.346;2022-11-23T08:36:28;101487.25;;;-1.81;97.36
66021;BME280;52789;59.980;30.346;2022-11-23T08:38:54;101494.03;;;-1.77;96.89
66021;BME280;52789;59.980;30.346;2022-11-23T08:41:19;101492.25;;;-1.76;96.14
66021;BME280;52789;59.980;30.346;2022-11-23T08:43:46;101494.94;;;-1.78;96.28
66021;BME280;52789;59.980;30.346;2022-11-23T08:46:12;101495.78;;;-1.77;96.14
66021;BME280;52789;59.980;30.346;2022-11-23T08:48:37;101493.03;;;-1.74;96.57
66021;BME280;52789;59.980;30.346;2022-11-23T08:51:03;101491.25;;;-1.72;96.22
66021;BME280;52789;59.980;30.346;2022-11-23T08:53:29;101493.00;;;-1.73;96.09
66021;BME280;52789;59.980;30.346;2022-11-23T08:55:54;101493.88;;;-1.74;96.79
66021;BME280;52789;59.980;30.346;2022-11-23T08:58:20;101492.25;;;-1.76;96.73
66021;BME280;52789;59.980;30.346;2022-11-23T09:00:45;101488.03;;;-1.79;96.49
66021;BME280;52789;59.980;30.346;2022-11-23T09:03:11;101496.41;;;-1.71;96.98
66021;BME280;52789;59.980;30.346;2022-11-23T09:05:37;101487.03;;;-1.76;96.17
66021;BME280;52789;59.980;30.346;2022-11-23T09:08:03;101495.16;;;-1.62;96.57
66021;BME280;52789;59.980;30.346;2022-11-23T09:10:29;101492.75;;;-1.67;96.12
66021;BME280;52789;59.980;30.346;2022-11-23T09:12:54;101496.91;;;-1.63;96.89
66021;BME280;52789;59.980;30.346;2022-11-23T09:15:20;101485.81;;;-1.68;95.88
66021;BME280;52789;59.980;30.346;2022-11-23T09:17:45;101499.72;;;-1.67;96.59
66021;BME280;52789;59.980;30.346;2022-11-23T09:20:11;101498.88;;;-1.68;96.25
66021;BME280;52789;59.980;30.346;2022-11-23T09:22:37;101502.13;;;-1.63;96.31
66021;BME280;52789;59.980;30.346;2022-11-23T09:25:04;101505.09;;;-1.51;96.45
66021;BME280;52789;59.980;30.346;2022-11-23T09:27:29;101506.03;;;-1.52;96.06
66021;BME280;52789;59.980;30.346;2022-11-23T09:29:55;101502.00;;;-1.60;95.47
66021;BME280;52789;59.980;30.346;2022-11-23T09:32:20;101503.75;;;-1.60;95.61
66021;BME280;52789;59.980;30.346;2022-11-23T09:34:46;101513.28;;;-1.59;95.45
66021;BME280;52789;59.980;30.346;2022-11-23T09:37:12;101499.38;;;-1.60;95.83
66021;BME280;52789;59.980;30.346;2022-11-23T09:39:37;101506.56;;;-1.65;95.85
66021;BME280;52789;59.980;30.346;2022-11-23T09:50:35;101510.09;;;-1.66;95.27
66021;BME280;52789;59.980;30.346;2022-11-23T09:53:11;101526.41;;;-1.61;94.67
66021;BME280;52789;59.980;30.346;2022-11-23T09:55:46;101516.88;;;-1.62;94.77
66021;BME280;52789;59.980;30.346;2022-11-23T09:58:15;101513.91;;;-1.73;94.87
66021;BME280;52789;59.980;30.346;2022-11-23T10:00:52;101525.13;;;-1.71;95.38
66021;BME280;52789;59.980;30.346;2022-11-23T10:03:21;101510.59;;;-1.78;95.43
66021;BME280;52789;59.980;30.346;2022-11-23T10:11:42;101527.34;;;-1.62;95.65
66021;BME280;52789;59.980;30.346;2022-11-23T10:14:26;101512.25;;;-1.75;95.37
66021;BME280;52789;59.980;30.346;2022-11-23T10:22:58;101522.63;;;-1.74;97.00
66021;BME280;52789;59.980;30.346;2022-11-23T10:25:32;101530.44;;;-1.74;97.50
66021;BME280;52789;59.980;30.346;2022-11-23T10:28:05;101487.31;;;-2.03;97.71
66021;BME280;52789;59.980;30.346;2022-11-23T10:30:36;101524.84;;;-1.85;98.23
66021;BME280;52789;59.980;30.346;2022-11-23T10:33:29;101528.25;;;-1.83;98.62
66021;BME280;52789;59.980;30.346;2022-11-23T10:35:56;101533.59;;;-1.86;98.06
66021;BME280;52789;59.980;30.346;2022-11-23T10:38:25;101538.69;;;-1.83;98.23
66021;BME280;52789;59.980;30.346;2022-11-23T10:41:11;101538.28;;;-1.74;97.94
66021;BME280;52789;59.980;30.346;2022-11-23T10:49:27;101537.56;;;-1.77;98.47
66021;BME280;52789;59.980;30.346;2022-11-23T10:52:05;101538.28;;;-1.74;98.03
66021;BME280;52789;59.980;30.346;2022-11-23T10:54:54;101528.97;;;-1.79;97.13
66021;BME280;52789;59.980;30.346;2022-11-23T11:02:27;101518.25;;;-1.94;98.71
66021;BME280;52789;59.980;30.346;2022-11-23T11:07:51;101527.19;;;-1.99;98.43
66021;BME280;52789;59.980;30.346;2022-11-23T11:13:01;101530.81;;;-2.03;97.37
66021;BME280;52789;59.980;30.346;2022-11-23T11:15:27;101512.88;;;-2.11;97.94
66021;BME280;52789;59.980;30.346;2022-11-23T11:17:58;101524.72;;;-2.02;97.47
66021;BME280;52789;59.980;30.346;2022-11-23T11:20:30;101515.44;;;-2.09;98.06
66021;BME280;52789;59.980;30.346;2022-11-23T11:23:01;101519.72;;;-2.08;97.94
66021;BME280;52789;59.980;30.346;2022-11-23T11:25:29;101534.34;;;-2.04;98.32
66021;BME280;52789;59.980;30.346;2022-11-23T11:27:56;101536.97;;;-2.04;98.63
66021;BME280;52789;59.980;30.346;2022-11-23T11:30:24;101530.81;;;-2.03;98.80
66021;BME280;52789;59.980;30.346;2022-11-23T11:33:10;101526.88;;;-1.92;98.72
66021;BME280;52789;59.980;30.346;2022-11-23T11:35:41;101525.13;;;-1.91;97.86
66021;BME280;52789;59.980;30.346;2022-11-23T11:38:13;101529.94;;;-1.82;97.50
66021;BME280;52789;59.980;30.346;2022-11-23T11:40:46;101531.97;;;-1.89;96.48
66021;BME280;52789;59.980;30.346;2022-11-23T11:46:01;101527.56;;;-2.08;97.02
66021;BME280;52789;59.980;30.346;2022-11-23T11:52:10;101512.22;;;-2.16;97.38
66021;BME280;52789;59.980;30.346;2022-11-23T11:57:54;101529.06;;;-2.23;97.52
66021;BME280;52789;59.980;30.346;2022-11-23T12:00:23;101531.84;;;-2.28;97.62
66021;BME280;52789;59.980;30.346;2022-11-23T12:05:49;101541.19;;;-2.22;97.51
66021;BME280;52789;59.980;30.346;2022-11-23T12:13:22;101540.69;;;-2.10;96.83
66021;BME280;52789;59.980;30.346;2022-11-23T12:19:07;101542.31;;;-2.07;96.38
66021;BME280;52789;59.980;30.346;2022-11-23T12:29:13;101552.22;;;-2.37;96.75
66021;BME280;52789;59.980;30.346;2022-11-23T12:31:43;101547.19;;;-2.42;96.59
66021;BME280;52789;59.980;30.346;2022-11-23T12:40:02;101553.97;;;-2.38;96.08
66021;BME280;52789;59.980;30.346;2022-11-23T12:42:40;101557.81;;;-2.46;95.45
66021;BME280;52789;59.980;30.346;2022-11-23T12:45:38;101570.91;;;-2.48;95.64
66021;BME280;52789;59.980;30.346;2022-11-23T12:56:37;101577.28;;;-2.55;95.61
66021;BME280;52789;59.980;30.346;2022-11-23T12:59:10;101570.38;;;-2.56;96.19
66021;BME280;52789;59.980;30.346;2022-11-23T13:01:38;101564.25;;;-2.55;96.03
66021;BME280;52789;59.980;30.346;2022-11-23T13:10:23;101573.19;;;-2.62;95.70
66021;BME280;52789;59.980;30.346;2022-11-23T13:21:33;101564.69;;;-2.67;97.00
66021;BME280;52789;59.980;30.346;2022-11-23T13:24:00;101559.59;;;-2.70;97.24
66021;BME280;52789;59.980;30.346;2022-11-23T13:26:27;101556.75;;;-2.64;97.17
66021;BME280;52789;59.980;30.346;2022-11-23T13:28:54;101547.47;;;-2.71;96.66
66021;BME280;52789;59.980;30.346;2022-11-23T13:31:30;101565.19;;;-2.79;97.21
66021;BME280;52789;59.980;30.346;2022-11-23T13:34:00;101557.53;;;-2.84;97.71
66021;BME280;52789;59.980;30.346;2022-11-23T13:42:00;101554.22;;;-2.89;98.00
66021;BME280;52789;59.980;30.346;2022-11-23T13:44:26;101559.13;;;-2.80;97.74
66021;BME280;52789;59.980;30.346;2022-11-23T13:47:00;101547.84;;;-2.81;97.57
66021;BME280;52789;59.980;30.346;2022-11-23T13:49:36;101549.53;;;-2.79;97.84
66021;BME280;52789;59.980;30.346;2022-11-23T13:52:17;101556.56;;;-2.82;98.01
66021;BME280;52789;59.980;30.346;2022-11-23T13:58:37;101567.91;;;-2.83;97.75
66021;BME280;52789;59.980;30.346;2022-11-23T14:04:21;101562.88;;;-2.87;97.81
66021;BME280;52789;59.980;30.346;2022-11-23T14:06:49;101568.09;;;-2.87;97.98
66021;BME280;52789;59.980;30.346;2022-11-23T14:09:32;101570.94;;;-2.95;98.01
66021;BME280;52789;59.980;30.346;2022-11-23T14:17:28;101569.94;;;-2.91;98.22
66021;BME280;52789;59.980;30.346;2022-11-23T14:26:26;101590.69;;;-2.88;98.07
66021;BME280;52789;59.980;30.346;2022-11-23T14:36:44;101590.91;;;-2.94;97.19
66021;BME280;52789;59.980;30.346;2022-11-23T14:41:58;101585.13;;;-3.02;96.26
66021;BME280;52789;59.980;30.346;2022-11-23T14:44:26;101598.81;;;-2.97;97.28
66021;BME280;52789;59.980;30.346;2022-11-23T14:47:03;101601.25;;;-2.92;97.07
66021;BME280;52789;59.980;30.346;2022-11-23T14:49:31;101600.53;;;-2.96;96.74
66021;BME280;52789;59.980;30.346;2022-11-23T14:51:58;101609.03;;;-2.91;97.86
66021;BME280;52789;59.980;30.346;2022-11-23T14:54:25;101604.03;;;-2.97;97.28
66021;BME280;52789;59.980;30.346;2022-11-23T14:56:56;101597.91;;;-2.96;97.79
66021;BME280;52789;59.980;30.346;2022-11-23T14:59:28;101600.28;;;-2.90;97.60
66021;BME280;52789;59.980;30.346;2022-11-23T15:02:03;101615.84;;;-2.87;97.60
66021;BME280;52789;59.980;30.346;2022-11-23T15:04:32;101609.03;;;-2.91;97.16